sensor_id;sensor_type;location;lat;lon;timestamp;P1;durP1;ratioP1;P2;durP2;ratioP2
6356;SDS011;3211;53.452;-2.264;2023-06-04T00:01:17;4.77;;;2.97;;
6356;SDS011;3211;53.452;-2.264;2023-06-04T00:04:03;5.60;;;3.20;;
6356;SDS011;3211;53.452;-2.264;2023-06-04T00:07:04;3.93;;;2.50;;
6356;SDS011;3211;53.452;-2.264;2023-06-04T00:10:04;7.40;;;3.40;;
6356;SDS011;3211;53.452;-2.264;2023-06-04T00:12:48;4.60;;;2.57;;
6356;SDS011;3211;53.452;-2.264;2023-06-04T00:15:35;6.33;;;3.33;;
6356;SDS011;3211;53.452;-2.264;2023-06-04T00:18:42;4.83;;;2.63;;
6356;SDS011;3211;53.452;-2.264;2023-06-04T00:21:34;8.20;;;3.10;;
6356;SDS011;3211;53.452;-2.264;2023-06-04T00:24:25;5.50;;;2.67;;
6356;SDS011;3211;53.452;-2.264;2023-06-04T00:27:14;5.73;;;2.83;;
6356;SDS011;3211;53.452;-2.264;2023-06-04T00:30:05;4.80;;;2.73;;
6356;SDS011;3211;53.452;-2.264;2023-06-04T00:32:56;8.67;;;2.77;;
6356;SDS011;3211;53.452;-2.264;2023-06-04T00:35:41;10.73;;;2.87;;
6356;SDS011;3211;53.452;-2.264;2023-06-04T00:38:29;7.67;;;2.57;;
6356;SDS011;3211;53.452;-2.264;2023-06-04T00:41:12;3.90;;;2.13;;
6356;SDS011;3211;53.452;-2.264;2023-06-04T00:44:02;6.20;;;2.80;;
6356;SDS011;3211;53.452;-2.264;2023-06-04T00:46:48;3.30;;;2.37;;
6356;SDS011;3211;53.452;-2.264;2023-06-04T00:49:30;4.60;;;2.67;;
6356;SDS011;3211;53.452;-2.264;2023-06-04T00:52:18;7.10;;;2.70;;
6356;SDS011;3211;53.452;-2.264;2023-06-04T00:55:05;4.97;;;2.30;;
6356;SDS011;3211;53.452;-2.264;2023-06-04T00:57:49;2.70;;;2.10;;
6356;SDS011;3211;53.452;-2.264;2023-06-04T01:00:34;8.20;;;2.80;;
6356;SDS011;3211;53.452;-2.264;2023-06-04T01:03:28;5.43;;;2.60;;
6356;SDS011;3211;53.452;-2.264;2023-06-04T01:06:18;4.57;;;2.33;;
6356;SDS011;3211;53.452;-2.264;2023-06-04T01:09:24;10.43;;;2.50;;
6356;SDS011;3211;53.452;-2.264;2023-06-04T01:12:09;7.93;;;2.47;;
6356;SDS011;3211;53.452;-2.264;2023-06-04T01:14:54;4.67;;;2.13;;
6356;SDS011;3211;53.452;-2.264;2023-06-04T01:17:40;3.97;;;2.50;;
6356;SDS011;3211;53.452;-2.264;2023-06-04T01:20:27;3.57;;;2.50;;
6356;SDS011;3211;53.452;-2.264;2023-06-04T01:23:28;3.93;;;2.73;;
6356;SDS011;3211;53.452;-2.264;2023-06-04T01:26:39;3.90;;;3.03;;
6356;SDS011;3211;53.452;-2.264;2023-06-04T01:29:24;2.67;;;2.33;;
6356;SDS011;3211;53.452;-2.264;2023-06-04T01:32:13;5.37;;;2.67;;
6356;SDS011;3211;53.452;-2.264;2023-06-04T01:35:06;6.37;;;2.60;;
6356;SDS011;3211;53.452;-2.264;2023-06-04T01:37:50;7.73;;;2.80;;
6356;SDS011;3211;53.452;-2.264;2023-06-04T01:40:36;6.13;;;3.07;;
6356;SDS011;3211;53.452;-2.264;2023-06-04T01:43:20;6.13;;;2.90;;
6356;SDS011;3211;53.452;-2.264;2023-06-04T01:46:12;5.80;;;2.90;;
6356;SDS011;3211;53.452;-2.264;2023-06-04T01:49:00;5.33;;;2.40;;
6356;SDS011;3211;53.452;-2.264;2023-06-04T01:51:48;11.00;;;3.10;;
6356;SDS011;3211;53.452;-2.264;2023-06-04T01:54:45;4.30;;;2.50;;
6356;SDS011;3211;53.452;-2.264;2023-06-04T01:57:35;5.53;;;2.90;;
6356;SDS011;3211;53.452;-2.264;2023-06-04T02:00:25;3.30;;;2.90;;
6356;SDS011;3211;53.452;-2.264;2023-06-04T02:03:13;6.63;;;3.27;;
6356;SDS011;3211;53.452;-2.264;2023-06-04T02:06:03;4.27;;;2.90;;
6356;SDS011;3211;53.452;-2.264;2023-06-04T02:08:49;7.40;;;2.80;;
6356;SDS011;3211;53.452;-2.264;2023-06-04T02:11:37;5.50;;;3.43;;
6356;SDS011;3211;53.452;-2.264;2023-06-04T02:14:22;3.97;;;2.57;;
6356;SDS011;3211;53.452;-2.264;2023-06-04T02:17:08;5.73;;;2.80;;
6356;SDS011;3211;53.452;-2.264;2023-06-04T02:19:52;4.27;;;2.77;;
6356;SDS011;3211;53.452;-2.264;2023-06-04T02:22:35;6.13;;;3.00;;
6356;SDS011;3211;53.452;-2.264;2023-06-04T02:25:17;5.63;;;2.80;;
6356;SDS011;3211;53.452;-2.264;2023-06-04T02:27:59;4.33;;;2.70;;
6356;SDS011;3211;53.452;-2.264;2023-06-04T02:30:41;5.17;;;2.63;;
6356;SDS011;3211;53.452;-2.264;2023-06-04T02:33:27;7.57;;;2.70;;
6356;SDS011;3211;53.452;-2.264;2023-06-04T02:36:09;5.50;;;2.77;;
6356;SDS011;3211;53.452;-2.264;2023-06-04T02:38:51;5.97;;;2.47;;
6356;SDS011;3211;53.452;-2.264;2023-06-04T02:41:33;3.80;;;2.50;;
6356;SDS011;3211;53.452;-2.264;2023-06-04T02:44:15;5.60;;;2.77;;
6356;SDS011;3211;53.452;-2.264;2023-06-04T02:46:57;7.03;;;2.87;;
6356;SDS011;3211;53.452;-2.264;2023-06-04T02:49:40;8.57;;;3.00;;
6356;SDS011;3211;53.452;-2.264;2023-06-04T02:52:22;4.10;;;2.60;;
6356;SDS011;3211;53.452;-2.264;2023-06-04T02:55:05;3.50;;;2.70;;
6356;SDS011;3211;53.452;-2.264;2023-06-04T02:57:48;5.43;;;3.07;;
6356;SDS011;3211;53.452;-2.264;2023-06-04T03:00:32;6.47;;;3.17;;
6356;SDS011;3211;53.452;-2.264;2023-06-04T03:03:13;6.23;;;2.60;;
6356;SDS011;3211;53.452;-2.264;2023-06-04T03:05:57;4.33;;;2.50;;
6356;SDS011;3211;53.452;-2.264;2023-06-04T03:08:42;6.37;;;2.50;;
6356;SDS011;3211;53.452;-2.264;2023-06-04T03:11:26;4.63;;;3.20;;
6356;SDS011;3211;53.452;-2.264;2023-06-04T03:14:08;6.77;;;4.13;;
6356;SDS011;3211;53.452;-2.264;2023-06-04T03:16:50;5.57;;;2.40;;
6356;SDS011;3211;53.452;-2.264;2023-06-04T03:19:34;7.43;;;3.37;;
6356;SDS011;3211;53.452;-2.264;2023-06-04T03:22:18;6.40;;;3.00;;
6356;SDS011;3211;53.452;-2.264;2023-06-04T03:25:00;7.73;;;3.00;;
6356;SDS011;3211;53.452;-2.264;2023-06-04T03:27:43;4.87;;;3.07;;
6356;SDS011;3211;53.452;-2.264;2023-06-04T03:30:25;4.63;;;3.00;;
6356;SDS011;3211;53.452;-2.264;2023-06-04T03:33:07;6.13;;;2.40;;
6356;SDS011;3211;53.452;-2.264;2023-06-04T03:35:49;7.13;;;2.80;;
6356;SDS011;3211;53.452;-2.264;2023-06-04T03:38:33;6.53;;;3.07;;
6356;SDS011;3211;53.452;-2.264;2023-06-04T03:41:15;8.37;;;3.07;;
6356;SDS011;3211;53.452;-2.264;2023-06-04T03:43:57;5.83;;;3.23;;
6356;SDS011;3211;53.452;-2.264;2023-06-04T03:46:39;8.13;;;3.10;;
6356;SDS011;3211;53.452;-2.264;2023-06-04T03:49:21;5.10;;;2.90;;
6356;SDS011;3211;53.452;-2.264;2023-06-04T03:52:03;6.70;;;2.70;;
6356;SDS011;3211;53.452;-2.264;2023-06-04T03:54:47;5.43;;;2.67;;
6356;SDS011;3211;53.452;-2.264;2023-06-04T03:57:29;4.37;;;2.70;;
6356;SDS011;3211;53.452;-2.264;2023-06-04T04:00:11;4.83;;;3.30;;
6356;SDS011;3211;53.452;-2.264;2023-06-04T04:02:54;8.73;;;3.20;;
6356;SDS011;3211;53.452;-2.264;2023-06-04T04:05:36;9.43;;;3.70;;
6356;SDS011;3211;53.452;-2.264;2023-06-04T04:08:18;6.67;;;3.23;;
6356;SDS011;3211;53.452;-2.264;2023-06-04T04:11:02;6.47;;;3.67;;
6356;SDS011;3211;53.452;-2.264;2023-06-04T04:13:44;9.43;;;4.50;;
6356;SDS011;3211;53.452;-2.264;2023-06-04T04:16:27;9.43;;;4.57;;
6356;SDS011;3211;53.452;-2.264;2023-06-04T04:19:09;9.67;;;4.03;;
6356;SDS011;3211;53.452;-2.264;2023-06-04T04:21:51;9.60;;;4.87;;
6356;SDS011;3211;53.452;-2.264;2023-06-04T04:24:33;8.23;;;5.60;;
6356;SDS011;3211;53.452;-2.264;2023-06-04T04:27:19;10.53;;;5.60;;
6356;SDS011;3211;53.452;-2.264;2023-06-04T04:30:01;11.17;;;6.10;;
6356;SDS011;3211;53.452;-2.264;2023-06-04T04:32:43;11.70;;;5.57;;
6356;SDS011;3211;53.452;-2.264;2023-06-04T04:35:28;10.37;;;6.00;;
6356;SDS011;3211;53.452;-2.264;2023-06-04T04:38:12;8.10;;;5.70;;
6356;SDS011;3211;53.452;-2.264;2023-06-04T04:40:57;8.63;;;6.00;;
6356;SDS011;3211;53.452;-2.264;2023-06-04T04:43:41;11.37;;;6.73;;
6356;SDS011;3211;53.452;-2.264;2023-06-04T04:46:23;10.40;;;5.27;;
6356;SDS011;3211;53.452;-2.264;2023-06-04T04:49:06;8.90;;;5.57;;
6356;SDS011;3211;53.452;-2.264;2023-06-04T04:51:48;6.33;;;4.50;;
6356;SDS011;3211;53.452;-2.264;2023-06-04T04:54:30;7.63;;;4.70;;
6356;SDS011;3211;53.452;-2.264;2023-06-04T04:57:12;8.83;;;4.80;;
6356;SDS011;3211;53.452;-2.264;2023-06-04T04:59:55;11.37;;;4.70;;
6356;SDS011;3211;53.452;-2.264;2023-06-04T05:02:37;6.03;;;4.40;;
6356;SDS011;3211;53.452;-2.264;2023-06-04T05:05:19;8.47;;;4.60;;
6356;SDS011;3211;53.452;-2.264;2023-06-04T05:08:01;6.33;;;4.83;;
6356;SDS011;3211;53.452;-2.264;2023-06-04T05:10:43;7.83;;;4.30;;
6356;SDS011;3211;53.452;-2.264;2023-06-04T05:13:25;6.90;;;3.90;;
6356;SDS011;3211;53.452;-2.264;2023-06-04T05:16:08;5.30;;;4.23;;
6356;SDS011;3211;53.452;-2.264;2023-06-04T05:18:51;5.00;;;4.30;;
6356;SDS011;3211;53.452;-2.264;2023-06-04T05:21:33;8.40;;;4.40;;
6356;SDS011;3211;53.452;-2.264;2023-06-04T05:24:16;5.50;;;4.13;;
6356;SDS011;3211;53.452;-2.264;2023-06-04T05:26:58;8.10;;;4.70;;
6356;SDS011;3211;53.452;-2.264;2023-06-04T05:29:40;7.57;;;4.37;;
6356;SDS011;3211;53.452;-2.264;2023-06-04T05:32:23;5.10;;;3.80;;
6356;SDS011;3211;53.452;-2.264;2023-06-04T05:35:08;5.57;;;3.40;;
6356;SDS011;3211;53.452;-2.264;2023-06-04T05:37:50;7.83;;;3.90;;
6356;SDS011;3211;53.452;-2.264;2023-06-04T05:40:33;6.90;;;4.67;;
6356;SDS011;3211;53.452;-2.264;2023-06-04T05:43:16;6.07;;;4.23;;
6356;SDS011;3211;53.452;-2.264;2023-06-04T05:45:58;7.20;;;5.33;;
6356;SDS011;3211;53.452;-2.264;2023-06-04T05:48:41;6.70;;;4.50;;
6356;SDS011;3211;53.452;-2.264;2023-06-04T05:51:23;6.83;;;4.20;;
6356;SDS011;3211;53.452;-2.264;2023-06-04T05:54:05;5.73;;;3.90;;
6356;SDS011;3211;53.452;-2.264;2023-06-04T05:56:47;6.50;;;3.67;;
6356;SDS011;3211;53.452;-2.264;2023-06-04T05:59:29;6.20;;;4.40;;
6356;SDS011;3211;53.452;-2.264;2023-06-04T06:02:11;7.47;;;4.60;;
6356;SDS011;3211;53.452;-2.264;2023-06-04T06:04:55;7.70;;;4.50;;
6356;SDS011;3211;53.452;-2.264;2023-06-04T06:07:37;7.23;;;4.47;;
6356;SDS011;3211;53.452;-2.264;2023-06-04T06:10:19;7.87;;;4.90;;
6356;SDS011;3211;53.452;-2.264;2023-06-04T06:13:02;5.27;;;4.07;;
6356;SDS011;3211;53.452;-2.264;2023-06-04T06:15:45;5.40;;;4.10;;
6356;SDS011;3211;53.452;-2.264;2023-06-04T06:18:28;7.10;;;4.50;;
6356;SDS011;3211;53.452;-2.264;2023-06-04T06:21:12;9.73;;;4.13;;
6356;SDS011;3211;53.452;-2.264;2023-06-04T06:23:54;6.10;;;3.40;;
6356;SDS011;3211;53.452;-2.264;2023-06-04T06:26:35;5.23;;;3.47;;
6356;SDS011;3211;53.452;-2.264;2023-06-04T06:29:17;8.13;;;4.00;;
6356;SDS011;3211;53.452;-2.264;2023-06-04T06:31:59;5.03;;;3.60;;
6356;SDS011;3211;53.452;-2.264;2023-06-04T06:34:41;9.50;;;4.00;;
6356;SDS011;3211;53.452;-2.264;2023-06-04T06:37:25;4.93;;;3.00;;
6356;SDS011;3211;53.452;-2.264;2023-06-04T06:40:07;5.13;;;3.00;;
6356;SDS011;3211;53.452;-2.264;2023-06-04T06:42:49;9.30;;;3.20;;
6356;SDS011;3211;53.452;-2.264;2023-06-04T06:45:32;4.93;;;3.43;;
6356;SDS011;3211;53.452;-2.264;2023-06-04T06:48:14;5.10;;;3.60;;
6356;SDS011;3211;53.452;-2.264;2023-06-04T06:50:55;7.70;;;4.13;;
6356;SDS011;3211;53.452;-2.264;2023-06-04T06:53:39;11.53;;;3.77;;
6356;SDS011;3211;53.452;-2.264;2023-06-04T06:56:21;5.03;;;3.70;;
6356;SDS011;3211;53.452;-2.264;2023-06-04T06:59:03;5.10;;;3.30;;
6356;SDS011;3211;53.452;-2.264;2023-06-04T07:01:45;9.10;;;4.27;;
6356;SDS011;3211;53.452;-2.264;2023-06-04T07:04:28;7.33;;;3.37;;
6356;SDS011;3211;53.452;-2.264;2023-06-04T07:07:10;6.20;;;3.30;;
6356;SDS011;3211;53.452;-2.264;2023-06-04T07:09:53;7.60;;;2.90;;
6356;SDS011;3211;53.452;-2.264;2023-06-04T07:12:36;6.20;;;2.87;;
6356;SDS011;3211;53.452;-2.264;2023-06-04T07:15:18;6.37;;;3.40;;
6356;SDS011;3211;53.452;-2.264;2023-06-04T07:18:00;5.37;;;2.60;;
6356;SDS011;3211;53.452;-2.264;2023-06-04T07:20:43;4.43;;;2.90;;
6356;SDS011;3211;53.452;-2.264;2023-06-04T07:23:25;3.63;;;2.47;;
6356;SDS011;3211;53.452;-2.264;2023-06-04T07:26:08;4.87;;;3.07;;
6356;SDS011;3211;53.452;-2.264;2023-06-04T07:28:50;8.97;;;2.83;;
6356;SDS011;3211;53.452;-2.264;2023-06-04T07:31:32;6.40;;;3.03;;
6356;SDS011;3211;53.452;-2.264;2023-06-04T07:34:15;7.57;;;2.63;;
6356;SDS011;3211;53.452;-2.264;2023-06-04T07:36:57;5.00;;;2.53;;
6356;SDS011;3211;53.452;-2.264;2023-06-04T07:39:38;4.97;;;2.60;;
6356;SDS011;3211;53.452;-2.264;2023-06-04T07:42:22;5.43;;;3.47;;
6356;SDS011;3211;53.452;-2.264;2023-06-04T07:45:04;6.70;;;3.30;;
6356;SDS011;3211;53.452;-2.264;2023-06-04T07:47:47;7.13;;;3.13;;
6356;SDS011;3211;53.452;-2.264;2023-06-04T07:50:29;5.03;;;2.73;;
6356;SDS011;3211;53.452;-2.264;2023-06-04T07:53:11;7.23;;;2.87;;
6356;SDS011;3211;53.452;-2.264;2023-06-04T07:55:53;6.97;;;2.83;;
6356;SDS011;3211;53.452;-2.264;2023-06-04T07:58:37;4.10;;;2.70;;
6356;SDS011;3211;53.452;-2.264;2023-06-04T08:01:19;5.13;;;2.80;;
6356;SDS011;3211;53.452;-2.264;2023-06-04T08:04:01;4.97;;;3.20;;
6356;SDS011;3211;53.452;-2.264;2023-06-04T08:06:43;2.90;;;2.60;;
6356;SDS011;3211;53.452;-2.264;2023-06-04T08:09:25;7.47;;;3.00;;
6356;SDS011;3211;53.452;-2.264;2023-06-04T08:12:07;4.53;;;3.37;;
6356;SDS011;3211;53.452;-2.264;2023-06-04T08:14:50;5.30;;;2.60;;
6356;SDS011;3211;53.452;-2.264;2023-06-04T08:17:36;5.60;;;2.60;;
6356;SDS011;3211;53.452;-2.264;2023-06-04T08:20:22;6.13;;;2.83;;
6356;SDS011;3211;53.452;-2.264;2023-06-04T08:23:04;5.80;;;2.70;;
6356;SDS011;3211;53.452;-2.264;2023-06-04T08:25:46;5.60;;;2.80;;
6356;SDS011;3211;53.452;-2.264;2023-06-04T08:28:28;6.30;;;2.53;;
6356;SDS011;3211;53.452;-2.264;2023-06-04T08:31:12;6.53;;;2.97;;
6356;SDS011;3211;53.452;-2.264;2023-06-04T08:33:54;5.43;;;2.70;;
6356;SDS011;3211;53.452;-2.264;2023-06-04T08:36:36;5.03;;;3.00;;
6356;SDS011;3211;53.452;-2.264;2023-06-04T08:39:18;4.70;;;2.23;;
6356;SDS011;3211;53.452;-2.264;2023-06-04T08:42:04;6.53;;;2.70;;
6356;SDS011;3211;53.452;-2.264;2023-06-04T08:44:49;5.50;;;2.70;;
6356;SDS011;3211;53.452;-2.264;2023-06-04T08:47:34;5.87;;;2.80;;
6356;SDS011;3211;53.452;-2.264;2023-06-04T08:50:18;5.20;;;2.90;;
6356;SDS011;3211;53.452;-2.264;2023-06-04T08:53:01;5.53;;;2.83;;
6356;SDS011;3211;53.452;-2.264;2023-06-04T08:55:43;4.43;;;2.50;;
6356;SDS011;3211;53.452;-2.264;2023-06-04T08:58:26;4.10;;;2.50;;
6356;SDS011;3211;53.452;-2.264;2023-06-04T09:01:12;5.77;;;4.20;;
6356;SDS011;3211;53.452;-2.264;2023-06-04T09:03:56;5.20;;;2.60;;
6356;SDS011;3211;53.452;-2.264;2023-06-04T09:06:40;5.00;;;3.13;;
6356;SDS011;3211;53.452;-2.264;2023-06-04T09:09:24;8.93;;;3.47;;
6356;SDS011;3211;53.452;-2.264;2023-06-04T09:12:08;4.33;;;2.90;;
6356;SDS011;3211;53.452;-2.264;2023-06-04T09:14:51;4.40;;;2.70;;
6356;SDS011;3211;53.452;-2.264;2023-06-04T09:17:33;4.70;;;2.60;;
6356;SDS011;3211;53.452;-2.264;2023-06-04T09:20:20;4.00;;;2.47;;
6356;SDS011;3211;53.452;-2.264;2023-06-04T09:23:11;5.67;;;2.43;;
6356;SDS011;3211;53.452;-2.264;2023-06-04T09:25:54;4.43;;;2.70;;
6356;SDS011;3211;53.452;-2.264;2023-06-04T09:28:39;5.60;;;2.17;;
6356;SDS011;3211;53.452;-2.264;2023-06-04T09:31:22;6.27;;;3.00;;
6356;SDS011;3211;53.452;-2.264;2023-06-04T09:34:07;6.20;;;2.73;;
6356;SDS011;3211;53.452;-2.264;2023-06-04T09:36:50;6.23;;;2.57;;
6356;SDS011;3211;53.452;-2.264;2023-06-04T09:39:32;5.27;;;2.73;;
6356;SDS011;3211;53.452;-2.264;2023-06-04T09:42:14;3.23;;;2.60;;
6356;SDS011;3211;53.452;-2.264;2023-06-04T09:44:56;8.27;;;2.43;;
6356;SDS011;3211;53.452;-2.264;2023-06-04T09:47:41;4.73;;;3.00;;
6356;SDS011;3211;53.452;-2.264;2023-06-04T09:50:27;5.57;;;2.93;;
6356;SDS011;3211;53.452;-2.264;2023-06-04T09:53:16;4.37;;;2.60;;
6356;SDS011;3211;53.452;-2.264;2023-06-04T09:56:02;4.43;;;2.20;;
6356;SDS011;3211;53.452;-2.264;2023-06-04T09:58:46;3.53;;;2.47;;
6356;SDS011;3211;53.452;-2.264;2023-06-04T10:01:30;4.27;;;2.63;;
6356;SDS011;3211;53.452;-2.264;2023-06-04T10:04:13;6.93;;;2.97;;
6356;SDS011;3211;53.452;-2.264;2023-06-04T10:06:56;4.30;;;2.50;;
6356;SDS011;3211;53.452;-2.264;2023-06-04T10:09:40;3.43;;;2.40;;
6356;SDS011;3211;53.452;-2.264;2023-06-04T10:12:29;4.67;;;2.50;;
6356;SDS011;3211;53.452;-2.264;2023-06-04T10:15:16;4.53;;;2.60;;
6356;SDS011;3211;53.452;-2.264;2023-06-04T10:17:59;4.87;;;2.57;;
6356;SDS011;3211;53.452;-2.264;2023-06-04T10:20:43;3.73;;;2.50;;
6356;SDS011;3211;53.452;-2.264;2023-06-04T10:23:26;6.93;;;3.13;;
6356;SDS011;3211;53.452;-2.264;2023-06-04T10:26:10;5.87;;;2.47;;
6356;SDS011;3211;53.452;-2.264;2023-06-04T10:28:56;6.43;;;2.77;;
6356;SDS011;3211;53.452;-2.264;2023-06-04T10:31:38;8.07;;;2.43;;
6356;SDS011;3211;53.452;-2.264;2023-06-04T10:34:21;4.73;;;2.60;;
6356;SDS011;3211;53.452;-2.264;2023-06-04T10:37:03;5.37;;;2.60;;
6356;SDS011;3211;53.452;-2.264;2023-06-04T10:39:49;3.87;;;2.60;;
6356;SDS011;3211;53.452;-2.264;2023-06-04T10:42:38;6.07;;;2.40;;
6356;SDS011;3211;53.452;-2.264;2023-06-04T10:45:28;2.70;;;2.17;;
6356;SDS011;3211;53.452;-2.264;2023-06-04T10:48:11;3.73;;;2.10;;
6356;SDS011;3211;53.452;-2.264;2023-06-04T10:50:54;6.90;;;2.63;;
6356;SDS011;3211;53.452;-2.264;2023-06-04T10:53:36;7.27;;;2.87;;
6356;SDS011;3211;53.452;-2.264;2023-06-04T10:56:24;4.70;;;2.43;;
6356;SDS011;3211;53.452;-2.264;2023-06-04T10:59:14;6.90;;;2.43;;
6356;SDS011;3211;53.452;-2.264;2023-06-04T11:02:04;4.87;;;2.77;;
6356;SDS011;3211;53.452;-2.264;2023-06-04T11:04:46;5.23;;;2.57;;
6356;SDS011;3211;53.452;-2.264;2023-06-04T11:07:42;7.40;;;2.40;;
6356;SDS011;3211;53.452;-2.264;2023-06-04T11:10:30;3.60;;;2.10;;
6356;SDS011;3211;53.452;-2.264;2023-06-04T11:13:14;4.10;;;2.70;;
6356;SDS011;3211;53.452;-2.264;2023-06-04T11:15:57;3.63;;;2.57;;
6356;SDS011;3211;53.452;-2.264;2023-06-04T11:18:39;7.03;;;2.33;;
6356;SDS011;3211;53.452;-2.264;2023-06-04T11:21:21;3.70;;;2.20;;
6356;SDS011;3211;53.452;-2.264;2023-06-04T11:24:04;3.30;;;2.63;;
6356;SDS011;3211;53.452;-2.264;2023-06-04T11:26:47;2.90;;;2.00;;
6356;SDS011;3211;53.452;-2.264;2023-06-04T11:29:29;9.33;;;2.93;;
6356;SDS011;3211;53.452;-2.264;2023-06-04T11:32:21;4.33;;;2.73;;
6356;SDS011;3211;53.452;-2.264;2023-06-04T11:35:04;5.47;;;2.50;;
6356;SDS011;3211;53.452;-2.264;2023-06-04T11:37:52;5.57;;;2.80;;
6356;SDS011;3211;53.452;-2.264;2023-06-04T11:40:35;4.27;;;2.50;;
6356;SDS011;3211;53.452;-2.264;2023-06-04T11:43:17;6.20;;;2.60;;
6356;SDS011;3211;53.452;-2.264;2023-06-04T11:46:04;4.07;;;2.80;;
6356;SDS011;3211;53.452;-2.264;2023-06-04T11:48:48;3.97;;;2.40;;
6356;SDS011;3211;53.452;-2.264;2023-06-04T11:51:32;4.40;;;2.30;;
6356;SDS011;3211;53.452;-2.264;2023-06-04T11:54:15;3.00;;;2.50;;
6356;SDS011;3211;53.452;-2.264;2023-06-04T11:56:57;3.83;;;2.20;;
6356;SDS011;3211;53.452;-2.264;2023-06-04T11:59:39;5.80;;;2.50;;
6356;SDS011;3211;53.452;-2.264;2023-06-04T12:02:22;2.90;;;2.20;;
6356;SDS011;3211;53.452;-2.264;2023-06-04T12:05:12;3.50;;;2.20;;
6356;SDS011;3211;53.452;-2.264;2023-06-04T12:08:03;3.87;;;2.40;;
6356;SDS011;3211;53.452;-2.264;2023-06-04T12:10:45;5.77;;;2.80;;
6356;SDS011;3211;53.452;-2.264;2023-06-04T12:13:27;2.20;;;2.00;;
6356;SDS011;3211;53.452;-2.264;2023-06-04T12:16:18;3.50;;;2.20;;
6356;SDS011;3211;53.452;-2.264;2023-06-04T12:19:04;5.77;;;2.40;;
6356;SDS011;3211;53.452;-2.264;2023-06-04T12:21:58;3.00;;;2.57;;
6356;SDS011;3211;53.452;-2.264;2023-06-04T12:24:48;4.87;;;2.57;;
6356;SDS011;3211;53.452;-2.264;2023-06-04T12:27:33;4.50;;;2.47;;
6356;SDS011;3211;53.452;-2.264;2023-06-04T12:30:15;3.33;;;2.43;;
6356;SDS011;3211;53.452;-2.264;2023-06-04T12:32:57;3.80;;;2.63;;
6356;SDS011;3211;53.452;-2.264;2023-06-04T12:35:39;10.13;;;2.73;;
6356;SDS011;3211;53.452;-2.264;2023-06-04T12:38:22;4.23;;;2.30;;
6356;SDS011;3211;53.452;-2.264;2023-06-04T12:41:04;4.27;;;2.50;;
6356;SDS011;3211;53.452;-2.264;2023-06-04T12:43:46;3.73;;;2.10;;
6356;SDS011;3211;53.452;-2.264;2023-06-04T12:46:28;3.20;;;2.43;;
6356;SDS011;3211;53.452;-2.264;2023-06-04T12:49:10;3.37;;;2.20;;
6356;SDS011;3211;53.452;-2.264;2023-06-04T12:51:52;5.90;;;2.73;;
6356;SDS011;3211;53.452;-2.264;2023-06-04T12:54:37;4.87;;;2.47;;
6356;SDS011;3211;53.452;-2.264;2023-06-04T12:57:19;5.10;;;2.70;;
6356;SDS011;3211;53.452;-2.264;2023-06-04T13:00:01;4.03;;;2.70;;
6356;SDS011;3211;53.452;-2.264;2023-06-04T13:02:44;7.80;;;2.40;;
6356;SDS011;3211;53.452;-2.264;2023-06-04T13:05:26;4.83;;;3.00;;
6356;SDS011;3211;53.452;-2.264;2023-06-04T13:08:08;8.00;;;3.10;;
6356;SDS011;3211;53.452;-2.264;2023-06-04T13:10:51;5.93;;;2.40;;
6356;SDS011;3211;53.452;-2.264;2023-06-04T13:13:33;5.23;;;2.70;;
6356;SDS011;3211;53.452;-2.264;2023-06-04T13:16:15;3.97;;;2.40;;
6356;SDS011;3211;53.452;-2.264;2023-06-04T13:18:57;3.37;;;2.33;;
6356;SDS011;3211;53.452;-2.264;2023-06-04T13:21:39;4.30;;;2.87;;
6356;SDS011;3211;53.452;-2.264;2023-06-04T13:24:21;8.90;;;3.30;;
6356;SDS011;3211;53.452;-2.264;2023-06-04T13:27:04;6.10;;;3.60;;
6356;SDS011;3211;53.452;-2.264;2023-06-04T13:29:46;5.00;;;2.70;;
6356;SDS011;3211;53.452;-2.264;2023-06-04T13:32:28;4.03;;;2.30;;
6356;SDS011;3211;53.452;-2.264;2023-06-04T13:35:10;4.17;;;2.63;;
6356;SDS011;3211;53.452;-2.264;2023-06-04T13:37:52;4.00;;;2.43;;
6356;SDS011;3211;53.452;-2.264;2023-06-04T13:40:34;4.00;;;2.60;;
6356;SDS011;3211;53.452;-2.264;2023-06-04T13:43:18;5.60;;;2.70;;
6356;SDS011;3211;53.452;-2.264;2023-06-04T13:46:00;6.07;;;2.60;;
6356;SDS011;3211;53.452;-2.264;2023-06-04T13:48:42;3.43;;;2.37;;
6356;SDS011;3211;53.452;-2.264;2023-06-04T13:51:24;3.43;;;2.30;;
6356;SDS011;3211;53.452;-2.264;2023-06-04T13:54:07;4.07;;;2.60;;
6356;SDS011;3211;53.452;-2.264;2023-06-04T13:56:49;4.03;;;2.40;;
6356;SDS011;3211;53.452;-2.264;2023-06-04T13:59:32;4.13;;;2.70;;
6356;SDS011;3211;53.452;-2.264;2023-06-04T14:02:15;5.17;;;2.40;;
6356;SDS011;3211;53.452;-2.264;2023-06-04T14:04:57;4.03;;;2.10;;
6356;SDS011;3211;53.452;-2.264;2023-06-04T14:07:40;4.67;;;2.57;;
6356;SDS011;3211;53.452;-2.264;2023-06-04T14:10:22;3.13;;;2.50;;
6356;SDS011;3211;53.452;-2.264;2023-06-04T14:13:04;3.80;;;2.17;;
6356;SDS011;3211;53.452;-2.264;2023-06-04T14:15:47;3.70;;;2.90;;
6356;SDS011;3211;53.452;-2.264;2023-06-04T14:18:33;4.47;;;2.60;;
6356;SDS011;3211;53.452;-2.264;2023-06-04T14:21:19;3.93;;;2.67;;
6356;SDS011;3211;53.452;-2.264;2023-06-04T14:24:02;5.80;;;2.50;;
6356;SDS011;3211;53.452;-2.264;2023-06-04T14:26:44;3.63;;;2.60;;
6356;SDS011;3211;53.452;-2.264;2023-06-04T14:29:27;6.27;;;2.80;;
6356;SDS011;3211;53.452;-2.264;2023-06-04T14:32:10;3.57;;;2.10;;
6356;SDS011;3211;53.452;-2.264;2023-06-04T14:34:52;5.00;;;2.43;;
6356;SDS011;3211;53.452;-2.264;2023-06-04T14:37:35;3.60;;;2.17;;
6356;SDS011;3211;53.452;-2.264;2023-06-04T14:40:17;3.50;;;2.60;;
6356;SDS011;3211;53.452;-2.264;2023-06-04T14:42:59;4.90;;;2.40;;
6356;SDS011;3211;53.452;-2.264;2023-06-04T14:45:41;3.80;;;2.53;;
6356;SDS011;3211;53.452;-2.264;2023-06-04T14:48:25;6.20;;;2.70;;
6356;SDS011;3211;53.452;-2.264;2023-06-04T14:51:07;4.60;;;2.50;;
6356;SDS011;3211;53.452;-2.264;2023-06-04T14:53:49;3.57;;;2.17;;
6356;SDS011;3211;53.452;-2.264;2023-06-04T14:56:31;7.63;;;2.20;;
6356;SDS011;3211;53.452;-2.264;2023-06-04T14:59:13;5.60;;;2.77;;
6356;SDS011;3211;53.452;-2.264;2023-06-04T15:01:55;4.57;;;2.47;;
6356;SDS011;3211;53.452;-2.264;2023-06-04T15:04:38;6.37;;;2.43;;
6356;SDS011;3211;53.452;-2.264;2023-06-04T15:07:24;4.47;;;2.27;;
6356;SDS011;3211;53.452;-2.264;2023-06-04T15:10:06;3.90;;;2.40;;
6356;SDS011;3211;53.452;-2.264;2023-06-04T15:12:49;3.13;;;2.40;;
6356;SDS011;3211;53.452;-2.264;2023-06-04T15:15:31;3.63;;;2.20;;
6356;SDS011;3211;53.452;-2.264;2023-06-04T15:18:12;4.47;;;2.47;;
6356;SDS011;3211;53.452;-2.264;2023-06-04T15:20:56;5.40;;;2.30;;
6356;SDS011;3211;53.452;-2.264;2023-06-04T15:23:38;5.93;;;2.33;;
6356;SDS011;3211;53.452;-2.264;2023-06-04T15:26:21;8.10;;;2.57;;
6356;SDS011;3211;53.452;-2.264;2023-06-04T15:29:04;5.03;;;2.63;;
6356;SDS011;3211;53.452;-2.264;2023-06-04T15:31:47;8.00;;;2.60;;
6356;SDS011;3211;53.452;-2.264;2023-06-04T15:34:30;5.13;;;2.40;;
6356;SDS011;3211;53.452;-2.264;2023-06-04T15:37:13;3.23;;;2.40;;
6356;SDS011;3211;53.452;-2.264;2023-06-04T15:39:55;2.90;;;2.43;;
6356;SDS011;3211;53.452;-2.264;2023-06-04T15:42:39;4.80;;;2.93;;
6356;SDS011;3211;53.452;-2.264;2023-06-04T15:45:21;4.07;;;3.50;;
6356;SDS011;3211;53.452;-2.264;2023-06-04T15:48:04;20.10;;;12.07;;
6356;SDS011;3211;53.452;-2.264;2023-06-04T15:50:46;33.70;;;20.00;;
6356;SDS011;3211;53.452;-2.264;2023-06-04T15:53:30;19.57;;;9.00;;
6356;SDS011;3211;53.452;-2.264;2023-06-04T15:56:11;16.03;;;10.93;;
6356;SDS011;3211;53.452;-2.264;2023-06-04T15:58:56;20.20;;;12.30;;
6356;SDS011;3211;53.452;-2.264;2023-06-04T16:01:38;6.30;;;2.97;;
6356;SDS011;3211;53.452;-2.264;2023-06-04T16:04:22;10.97;;;6.47;;
6356;SDS011;3211;53.452;-2.264;2023-06-04T16:07:04;6.10;;;3.50;;
6356;SDS011;3211;53.452;-2.264;2023-06-04T16:09:47;6.43;;;2.70;;
6356;SDS011;3211;53.452;-2.264;2023-06-04T16:12:29;4.23;;;2.47;;
6356;SDS011;3211;53.452;-2.264;2023-06-04T16:15:11;5.33;;;2.63;;
6356;SDS011;3211;53.452;-2.264;2023-06-04T16:17:54;8.17;;;2.77;;
6356;SDS011;3211;53.452;-2.264;2023-06-04T16:20:36;4.40;;;2.50;;
6356;SDS011;3211;53.452;-2.264;2023-06-04T16:23:18;3.93;;;2.33;;
6356;SDS011;3211;53.452;-2.264;2023-06-04T16:26:01;9.10;;;2.80;;
6356;SDS011;3211;53.452;-2.264;2023-06-04T16:28:43;4.47;;;2.50;;
6356;SDS011;3211;53.452;-2.264;2023-06-04T16:31:26;9.43;;;2.70;;
6356;SDS011;3211;53.452;-2.264;2023-06-04T16:34:08;4.80;;;2.50;;
6356;SDS011;3211;53.452;-2.264;2023-06-04T16:36:50;5.30;;;3.90;;
6356;SDS011;3211;53.452;-2.264;2023-06-04T16:39:32;9.90;;;7.20;;
6356;SDS011;3211;53.452;-2.264;2023-06-04T16:42:16;4.80;;;3.00;;